sensor_id;sensor_type;location;lat;lon;timestamp;pressure;altitude;pressure_sealevel;temperature;humidity
46722;BME280;32455;43.430;23.136;2022-08-07T00:00:52;97840.06;;;23.26;55.85
46722;BME280;32455;43.430;23.136;2022-08-07T00:03:38;97833.16;;;23.06;56.32
46722;BME280;32455;43.430;23.136;2022-08-07T00:06:24;97837.28;;;22.95;56.40
46722;BME280;32455;43.430;23.136;2022-08-07T00:09:10;97839.53;;;22.93;56.78
46722;BME280;32455;43.430;23.136;2022-08-07T00:11:55;97836.44;;;22.72;57.22
46722;BME280;32455;43.430;23.136;2022-08-07T00:14:41;97829.47;;;22.66;56.97
46722;BME280;32455;43.430;23.136;2022-08-07T00:17:27;97851.09;;;22.90;57.07
46722;BME280;32455;43.430;23.136;2022-08-07T00:20:12;97848.47;;;22.85;56.74
46722;BME280;32455;43.430;23.136;2022-08-07T00:22:58;97851.66;;;22.64;57.59
46722;BME280;32455;43.430;23.136;2022-08-07T00:25:43;97865.56;;;22.68;57.92
46722;BME280;32455;43.430;23.136;2022-08-07T00:28:30;97850.66;;;22.60;57.76
46722;BME280;32455;43.430;23.136;2022-08-07T00:31:16;97861.69;;;22.33;58.23
46722;BME280;32455;43.430;23.136;2022-08-07T00:34:01;97862.91;;;21.99;60.46
46722;BME280;32455;43.430;23.136;2022-08-07T00:36:47;97857.16;;;22.14;59.77
46722;BME280;32455;43.430;23.136;2022-08-07T00:39:33;97860.25;;;22.35;58.98
46722;BME280;32455;43.430;23.136;2022-08-07T00:42:19;97878.16;;;22.55;58.49
46722;BME280;32455;43.430;23.136;2022-08-07T00:45:06;97857.88;;;22.56;58.27
46722;BME280;32455;43.430;23.136;2022-08-07T00:47:52;97871.91;;;22.41;58.69
46722;BME280;32455;43.430;23.136;2022-08-07T00:50:40;97879.41;;;22.08;60.29
46722;BME280;32455;43.430;23.136;2022-08-07T00:53:27;97891.19;;;22.36;59.48
46722;BME280;32455;43.430;23.136;2022-08-07T00:56:13;97888.06;;;22.29;59.69
46722;BME280;32455;43.430;23.136;2022-08-07T00:58:59;97894.94;;;22.26;59.48
46722;BME280;32455;43.430;23.136;2022-08-07T01:01:46;97902.34;;;22.25;59.91
46722;BME280;32455;43.430;23.136;2022-08-07T01:04:32;97896.50;;;22.18;60.27
46722;BME280;32455;43.430;23.136;2022-08-07T01:07:20;97898.81;;;22.25;60.34
46722;BME280;32455;43.430;23.136;2022-08-07T01:10:07;97902.63;;;21.96;60.54
46722;BME280;32455;43.430;23.136;2022-08-07T01:12:53;97907.69;;;21.75;61.94
46722;BME280;32455;43.430;23.136;2022-08-07T01:15:40;97907.75;;;21.70;62.72
46722;BME280;32455;43.430;23.136;2022-08-07T01:18:27;97896.50;;;21.58;62.65
46722;BME280;32455;43.430;23.136;2022-08-07T01:21:16;97913.16;;;21.89;63.62
46722;BME280;32455;43.430;23.136;2022-08-07T01:24:01;97905.34;;;22.52;61.86
46722;BME280;32455;43.430;23.136;2022-08-07T01:26:49;97912.38;;;23.16;60.58
46722;BME280;32455;43.430;23.136;2022-08-07T01:29:35;97905.13;;;23.34;60.13
46722;BME280;32455;43.430;23.136;2022-08-07T01:32:20;97907.41;;;23.41;60.63
46722;BME280;32455;43.430;23.136;2022-08-07T01:35:06;97916.25;;;23.38;60.63
46722;BME280;32455;43.430;23.136;2022-08-07T01:37:52;97916.63;;;23.45;60.69
46722;BME280;32455;43.430;23.136;2022-08-07T01:40:38;97924.47;;;23.60;60.29
46722;BME280;32455;43.430;23.136;2022-08-07T01:43:25;97907.97;;;23.52;60.98
46722;BME280;32455;43.430;23.136;2022-08-07T01:46:10;97906.72;;;23.58;60.80
46722;BME280;32455;43.430;23.136;2022-08-07T01:48:57;97907.03;;;23.56;61.37
46722;BME280;32455;43.430;23.136;2022-08-07T01:51:42;97893.47;;;23.51;62.10
46722;BME280;32455;43.430;23.136;2022-08-07T01:54:34;97903.84;;;23.40;62.65
46722;BME280;32455;43.430;23.136;2022-08-07T01:57:24;97904.03;;;23.66;61.84
46722;BME280;32455;43.430;23.136;2022-08-07T02:00:12;97882.91;;;23.67;61.26
46722;BME280;32455;43.430;23.136;2022-08-07T02:03:02;97891.25;;;23.62;61.47
46722;BME280;32455;43.430;23.136;2022-08-07T02:05:59;97898.75;;;23.70;60.74
46722;BME280;32455;43.430;23.136;2022-08-07T02:08:48;97900.88;;;23.73;60.63
46722;BME280;32455;43.430;23.136;2022-08-07T02:11:37;97901.03;;;23.77;60.45
46722;BME280;32455;43.430;23.136;2022-08-07T02:14:25;97885.66;;;23.44;61.27
46722;BME280;32455;43.430;23.136;2022-08-07T02:17:13;97898.09;;;23.50;61.38
46722;BME280;32455;43.430;23.136;2022-08-07T02:20:01;97897.44;;;23.45;61.46
46722;BME280;32455;43.430;23.136;2022-08-07T02:22:48;97908.59;;;23.71;60.95
46722;BME280;32455;43.430;23.136;2022-08-07T02:25:36;97899.06;;;23.68;60.73
46722;BME280;32455;43.430;23.136;2022-08-07T02:28:22;97911.84;;;23.73;60.82
46722;BME280;32455;43.430;23.136;2022-08-07T02:31:10;97915.59;;;23.63;61.38
46722;BME280;32455;43.430;23.136;2022-08-07T02:33:58;97911.03;;;23.72;61.09
46722;BME280;32455;43.430;23.136;2022-08-07T02:36:44;97914.94;;;23.58;62.05
46722;BME280;32455;43.430;23.136;2022-08-07T02:39:31;97897.44;;;23.45;62.52
46722;BME280;32455;43.430;23.136;2022-08-07T02:42:18;97887.78;;;23.25;63.10
46722;BME280;32455;43.430;23.136;2022-08-07T02:45:07;97896.50;;;23.49;62.07
46722;BME280;32455;43.430;23.136;2022-08-07T02:47:53;97891.81;;;23.50;62.08
46722;BME280;32455;43.430;23.136;2022-08-07T02:50:42;97885.47;;;23.41;62.12
46722;BME280;32455;43.430;23.136;2022-08-07T02:53:32;97868.38;;;23.13;62.88
46722;BME280;32455;43.430;23.136;2022-08-07T02:56:22;97891.09;;;23.36;62.62
46722;BME280;32455;43.430;23.136;2022-08-07T02:59:10;97892.75;;;23.45;61.87
46722;BME280;32455;43.430;23.136;2022-08-07T03:01:59;97881.97;;;23.49;61.16
46722;BME280;32455;43.430;23.136;2022-08-07T03:04:46;97881.59;;;23.64;60.40
46722;BME280;32455;43.430;23.136;2022-08-07T03:07:32;97883.63;;;23.59;60.85
46722;BME280;32455;43.430;23.136;2022-08-07T03:10:19;97870.91;;;23.63;60.20
46722;BME280;32455;43.430;23.136;2022-08-07T03:13:05;97881.81;;;23.77;59.82
46722;BME280;32455;43.430;23.136;2022-08-07T03:15:52;97866.47;;;23.76;59.47
46722;BME280;32455;43.430;23.136;2022-08-07T03:18:38;97877.19;;;23.86;59.25
46722;BME280;32455;43.430;23.136;2022-08-07T03:21:24;97871.06;;;23.89;58.80
46722;BME280;32455;43.430;23.136;2022-08-07T03:24:09;97879.63;;;23.87;58.68
46722;BME280;32455;43.430;23.136;2022-08-07T03:27:00;97869.81;;;23.95;58.20
46722;BME280;32455;43.430;23.136;2022-08-07T03:29:50;97878.03;;;23.95;57.94
46722;BME280;32455;43.430;23.136;2022-08-07T03:32:40;97886.41;;;23.90;57.36
46722;BME280;32455;43.430;23.136;2022-08-07T03:35:27;97892.81;;;23.85;58.05
46722;BME280;32455;43.430;23.136;2022-08-07T03:38:14;97882.03;;;23.89;57.58
46722;BME280;32455;43.430;23.136;2022-08-07T03:41:00;97897.09;;;24.00;57.33
46722;BME280;32455;43.430;23.136;2022-08-07T03:43:47;97901.69;;;24.22;57.63
46722;BME280;32455;43.430;23.136;2022-08-07T03:46:33;97899.28;;;24.20;57.33
46722;BME280;32455;43.430;23.136;2022-08-07T03:49:19;97910.59;;;24.28;57.08
46722;BME280;32455;43.430;23.136;2022-08-07T03:52:07;97917.38;;;24.30;57.08
46722;BME280;32455;43.430;23.136;2022-08-07T03:54:59;97913.66;;;24.26;57.68
46722;BME280;32455;43.430;23.136;2022-08-07T03:57:45;97918.09;;;24.05;59.52
46722;BME280;32455;43.430;23.136;2022-08-07T04:00:32;97899.59;;;23.79;60.46
46722;BME280;32455;43.430;23.136;2022-08-07T04:03:19;97900.50;;;24.06;59.17
46722;BME280;32455;43.430;23.136;2022-08-07T04:06:09;97927.88;;;24.28;59.48
46722;BME280;32455;43.430;23.136;2022-08-07T04:08:55;97929.44;;;24.12;60.07
46722;BME280;32455;43.430;23.136;2022-08-07T04:11:40;97926.38;;;24.13;60.57
46722;BME280;32455;43.430;23.136;2022-08-07T04:14:26;97934.97;;;24.20;60.01
46722;BME280;32455;43.430;23.136;2022-08-07T04:17:12;97949.47;;;24.12;61.34
46722;BME280;32455;43.430;23.136;2022-08-07T04:19:59;97951.88;;;24.14;60.92
46722;BME280;32455;43.430;23.136;2022-08-07T04:22:45;97967.06;;;24.11;61.23
46722;BME280;32455;43.430;23.136;2022-08-07T04:25:35;97972.16;;;23.95;62.25
46722;BME280;32455;43.430;23.136;2022-08-07T04:28:23;97959.22;;;23.65;63.18
46722;BME280;32455;43.430;23.136;2022-08-07T04:31:09;97960.31;;;23.64;64.17
46722;BME280;32455;43.430;23.136;2022-08-07T04:33:55;97970.47;;;23.63;64.23
46722;BME280;32455;43.430;23.136;2022-08-07T04:36:41;97969.38;;;23.87;63.16
46722;BME280;32455;43.430;23.136;2022-08-07T04:39:26;97960.41;;;24.04;62.40
46722;BME280;32455;43.430;23.136;2022-08-07T04:42:13;97964.50;;;23.84;64.83
46722;BME280;32455;43.430;23.136;2022-08-07T04:45:00;97980.25;;;24.01;64.65
46722;BME280;32455;43.430;23.136;2022-08-07T05:00:48;97999.47;;;23.56;65.61
46722;BME280;32455;43.430;23.136;2022-08-07T05:03:54;97997.81;;;23.68;65.37
46722;BME280;32455;43.430;23.136;2022-08-07T05:10:13;98010.06;;;23.93;63.75
46722;BME280;32455;43.430;23.136;2022-08-07T05:13:06;98011.19;;;23.92;64.16
46722;BME280;32455;43.430;23.136;2022-08-07T05:15:53;98015.97;;;24.09;63.12
46722;BME280;32455;43.430;23.136;2022-08-07T05:18:47;98015.75;;;24.28;65.27
46722;BME280;32455;43.430;23.136;2022-08-07T05:21:36;98019.13;;;24.25;64.69
46722;BME280;32455;43.430;23.136;2022-08-07T05:24:23;98010.91;;;24.25;64.19
46722;BME280;32455;43.430;23.136;2022-08-07T05:27:12;98013.69;;;24.34;63.55
46722;BME280;32455;43.430;23.136;2022-08-07T05:29:59;98018.44;;;24.42;63.56
46722;BME280;32455;43.430;23.136;2022-08-07T05:32:45;98030.88;;;24.48;62.61
46722;BME280;32455;43.430;23.136;2022-08-07T05:35:33;98021.69;;;24.53;63.70
46722;BME280;32455;43.430;23.136;2022-08-07T05:38:20;98021.38;;;24.45;65.06
46722;BME280;32455;43.430;23.136;2022-08-07T05:41:07;98028.84;;;24.62;64.25
46722;BME280;32455;43.430;23.136;2022-08-07T05:43:54;98039.22;;;24.74;63.36
46722;BME280;32455;43.430;23.136;2022-08-07T05:46:41;98042.69;;;24.88;63.50
46722;BME280;32455;43.430;23.136;2022-08-07T05:49:28;98053.69;;;24.97;62.86
46722;BME280;32455;43.430;23.136;2022-08-07T05:52:14;98060.81;;;25.07;63.16
46722;BME280;32455;43.430;23.136;2022-08-07T05:55:00;98071.88;;;25.15;63.19
46722;BME280;32455;43.430;23.136;2022-08-07T05:57:46;98080.94;;;25.16;63.04
46722;BME280;32455;43.430;23.136;2022-08-07T06:00:33;98073.00;;;25.14;62.87
46722;BME280;32455;43.430;23.136;2022-08-07T06:03:22;98071.22;;;25.10;62.64
46722;BME280;32455;43.430;23.136;2022-08-07T06:06:10;98081.09;;;25.11;62.56
46722;BME280;32455;43.430;23.136;2022-08-07T06:08:57;98087.38;;;25.11;62.28
46722;BME280;32455;43.430;23.136;2022-08-07T06:11:43;98076.34;;;25.03;61.91
46722;BME280;32455;43.430;23.136;2022-08-07T06:14:29;98084.44;;;25.08;61.76
46722;BME280;32455;43.430;23.136;2022-08-07T06:17:16;98078.47;;;25.06;61.98
46722;BME280;32455;43.430;23.136;2022-08-07T06:20:02;98082.69;;;25.12;61.40
46722;BME280;32455;43.430;23.136;2022-08-07T06:22:49;98073.91;;;25.01;61.67
46722;BME280;32455;43.430;23.136;2022-08-07T06:25:39;98083.28;;;25.00;62.12
46722;BME280;32455;43.430;23.136;2022-08-07T06:28:24;98062.38;;;24.82;61.97
46722;BME280;32455;43.430;23.136;2022-08-07T06:31:10;98068.84;;;24.86;61.97
46722;BME280;32455;43.430;23.136;2022-08-07T06:33:56;98076.47;;;24.89;62.20
46722;BME280;32455;43.430;23.136;2022-08-07T06:36:41;98071.47;;;24.99;60.95
46722;BME280;32455;43.430;23.136;2022-08-07T06:39:27;98065.81;;;25.05;61.17
46722;BME280;32455;43.430;23.136;2022-08-07T06:42:48;98088.06;;;25.26;60.62
46722;BME280;32455;43.430;23.136;2022-08-07T06:45:27;98072.53;;;25.21;60.46
46722;BME280;32455;43.430;23.136;2022-08-07T06:48:13;98093.72;;;25.20;60.76
46722;BME280;32455;43.430;23.136;2022-08-07T06:51:03;98083.22;;;25.31;59.84
46722;BME280;32455;43.430;23.136;2022-08-07T06:53:50;98077.75;;;25.40;59.62
46722;BME280;32455;43.430;23.136;2022-08-07T06:56:37;98089.38;;;25.45;59.02
46722;BME280;32455;43.430;23.136;2022-08-07T06:59:30;98089.22;;;25.51;58.96
46722;BME280;32455;43.430;23.136;2022-08-07T07:02:22;98084.25;;;25.79;59.22
46722;BME280;32455;43.430;23.136;2022-08-07T07:05:09;98079.03;;;25.68;58.83
46722;BME280;32455;43.430;23.136;2022-08-07T07:07:55;98080.66;;;25.61;58.38
46722;BME280;32455;43.430;23.136;2022-08-07T07:10:41;98088.97;;;25.78;58.56
46722;BME280;32455;43.430;23.136;2022-08-07T07:13:38;98088.13;;;25.86;57.79
46722;BME280;32455;43.430;23.136;2022-08-07T07:16:26;98079.72;;;25.83;56.84
46722;BME280;32455;43.430;23.136;2022-08-07T07:19:16;98097.53;;;25.77;57.93
46722;BME280;32455;43.430;23.136;2022-08-07T07:22:05;98097.69;;;25.97;57.14
46722;BME280;32455;43.430;23.136;2022-08-07T07:24:52;98086.81;;;26.01;56.84
46722;BME280;32455;43.430;23.136;2022-08-07T07:27:55;98104.31;;;26.14;56.32
46722;BME280;32455;43.430;23.136;2022-08-07T07:30:47;98090.53;;;26.05;57.08
46722;BME280;32455;43.430;23.136;2022-08-07T07:33:37;98098.47;;;26.15;56.31
46722;BME280;32455;43.430;23.136;2022-08-07T07:36:24;98100.38;;;26.23;56.80
46722;BME280;32455;43.430;23.136;2022-08-07T07:39:11;98094.44;;;26.13;57.74
46722;BME280;32455;43.430;23.136;2022-08-07T07:42:00;98104.94;;;26.11;57.64
46722;BME280;32455;43.430;23.136;2022-08-07T07:44:45;98097.59;;;26.41;57.14
46722;BME280;32455;43.430;23.136;2022-08-07T07:47:35;98115.84;;;26.71;55.87
46722;BME280;32455;43.430;23.136;2022-08-07T07:50:25;98106.72;;;26.80;55.51
46722;BME280;32455;43.430;23.136;2022-08-07T07:53:13;98100.13;;;27.02;53.96
46722;BME280;32455;43.430;23.136;2022-08-07T07:56:00;98104.31;;;27.16;54.72
46722;BME280;32455;43.430;23.136;2022-08-07T07:58:47;98102.47;;;27.29;54.21
46722;BME280;32455;43.430;23.136;2022-08-07T08:01:34;98107.50;;;27.27;53.81
46722;BME280;32455;43.430;23.136;2022-08-07T08:04:22;98088.88;;;27.24;53.76
46722;BME280;32455;43.430;23.136;2022-08-07T08:07:10;98107.16;;;27.58;52.75
46722;BME280;32455;43.430;23.136;2022-08-07T08:09:58;98112.56;;;27.97;50.92
46722;BME280;32455;43.430;23.136;2022-08-07T08:12:45;98112.41;;;27.93;51.87
46722;BME280;32455;43.430;23.136;2022-08-07T08:15:35;98107.47;;;27.99;51.33
46722;BME280;32455;43.430;23.136;2022-08-07T08:18:23;98104.53;;;27.83;52.07
46722;BME280;32455;43.430;23.136;2022-08-07T08:21:12;98114.09;;;28.06;51.44
46722;BME280;32455;43.430;23.136;2022-08-07T08:24:19;98110.34;;;28.23;51.17
46722;BME280;32455;43.430;23.136;2022-08-07T08:27:25;98113.56;;;28.25;49.71
46722;BME280;32455;43.430;23.136;2022-08-07T08:30:12;98121.13;;;28.37;50.12
46722;BME280;32455;43.430;23.136;2022-08-07T08:33:02;98117.03;;;28.55;49.62
46722;BME280;32455;43.430;23.136;2022-08-07T08:35:48;98116.78;;;28.60;49.48
46722;BME280;32455;43.430;23.136;2022-08-07T08:38:40;98114.16;;;28.64;49.45
46722;BME280;32455;43.430;23.136;2022-08-07T08:41:58;98115.88;;;28.68;48.43
46722;BME280;32455;43.430;23.136;2022-08-07T08:48:16;98110.59;;;28.63;49.54
46722;BME280;32455;43.430;23.136;2022-08-07T08:51:18;98122.06;;;29.11;49.24
46722;BME280;32455;43.430;23.136;2022-08-07T08:54:23;98112.28;;;29.13;48.71
46722;BME280;32455;43.430;23.136;2022-08-07T08:57:15;98114.69;;;29.15;48.12
46722;BME280;32455;43.430;23.136;2022-08-07T09:00:08;98110.50;;;29.33;47.39
46722;BME280;32455;43.430;23.136;2022-08-07T09:03:00;98120.66;;;29.41;46.91
46722;BME280;32455;43.430;23.136;2022-08-07T09:11:49;98107.94;;;29.77;46.40
46722;BME280;32455;43.430;23.136;2022-08-07T09:15:04;98108.13;;;29.84;45.76
46722;BME280;32455;43.430;23.136;2022-08-07T09:21:32;98109.63;;;30.22;45.27
46722;BME280;32455;43.430;23.136;2022-08-07T09:24:51;98105.56;;;29.91;46.20
46722;BME280;32455;43.430;23.136;2022-08-07T09:31:01;98097.69;;;29.93;46.05
46722;BME280;32455;43.430;23.136;2022-08-07T09:36:59;98105.63;;;29.55;47.11
46722;BME280;32455;43.430;23.136;2022-08-07T09:39:50;98105.31;;;29.68;46.43
46722;BME280;32455;43.430;23.136;2022-08-07T09:49:28;98090.31;;;29.45;46.23
46722;BME280;32455;43.430;23.136;2022-08-07T09:52:41;98095.69;;;29.78;45.91
46722;BME280;32455;43.430;23.136;2022-08-07T10:01:56;98094.09;;;29.77;44.85
46722;BME280;32455;43.430;23.136;2022-08-07T10:04:51;98088.19;;;29.79;45.22
46722;BME280;32455;43.430;23.136;2022-08-07T10:10:53;98072.06;;;29.97;43.92
46722;BME280;32455;43.430;23.136;2022-08-07T10:20:16;98062.13;;;30.67;43.58
46722;BME280;32455;43.430;23.136;2022-08-07T10:26:15;98073.06;;;30.76;42.84
46722;BME280;32455;43.430;23.136;2022-08-07T10:32:55;98062.34;;;30.15;44.50
46722;BME280;32455;43.430;23.136;2022-08-07T10:39:32;98060.78;;;29.61;44.61
46722;BME280;32455;43.430;23.136;2022-08-07T10:45:30;98056.00;;;30.30;43.43
46722;BME280;32455;43.430;23.136;2022-08-07T10:51:54;98056.34;;;30.01;44.54
46722;BME280;32455;43.430;23.136;2022-08-07T10:54:56;98047.34;;;30.04;44.71
46722;BME280;32455;43.430;23.136;2022-08-07T11:00:48;98039.56;;;30.37;43.97
46722;BME280;32455;43.430;23.136;2022-08-07T11:04:09;98035.44;;;30.15;44.55
46722;BME280;32455;43.430;23.136;2022-08-07T11:10:27;98040.38;;;30.10;43.25
46722;BME280;32455;43.430;23.136;2022-08-07T11:13:41;98038.13;;;30.00;44.35
46722;BME280;32455;43.430;23.136;2022-08-07T11:17:02;98044.47;;;29.72;46.23
46722;BME280;32455;43.430;23.136;2022-08-07T11:20:01;98029.97;;;29.51;47.58
46722;BME280;32455;43.430;23.136;2022-08-07T11:25:41;98030.75;;;29.23;46.89
46722;BME280;32455;43.430;23.136;2022-08-07T11:28:35;98020.06;;;29.50;47.10
46722;BME280;32455;43.430;23.136;2022-08-07T11:31:38;98009.69;;;30.15;46.00
46722;BME280;32455;43.430;23.136;2022-08-07T11:34:40;98004.41;;;30.57;44.92
46722;BME280;32455;43.430;23.136;2022-08-07T11:50:48;97980.72;;;30.76;42.19
46722;BME280;32455;43.430;23.136;2022-08-07T11:54:49;97985.00;;;30.26;42.55
46722;BME280;32455;43.430;23.136;2022-08-07T11:57:15;97980.69;;;30.44;43.01
46722;BME280;32455;43.430;23.136;2022-08-07T12:03:10;97968.97;;;30.66;41.99
46722;BME280;32455;43.430;23.136;2022-08-07T12:09:34;97974.22;;;31.23;40.15
46722;BME280;32455;43.430;23.136;2022-08-07T12:12:27;97966.22;;;31.37;39.51
46722;BME280;32455;43.430;23.136;2022-08-07T12:15:31;97960.56;;;31.14;40.74
46722;BME280;32455;43.430;23.136;2022-08-07T12:18:34;97973.63;;;31.13;41.08
46722;BME280;32455;43.430;23.136;2022-08-07T12:24:40;97957.91;;;31.02;40.91
46722;BME280;32455;43.430;23.136;2022-08-07T12:27:59;97956.81;;;31.06;40.81
46722;BME280;32455;43.430;23.136;2022-08-07T12:30:49;97957.06;;;31.56;39.23
46722;BME280;32455;43.430;23.136;2022-08-07T12:33:39;97951.75;;;31.47;39.21
46722;BME280;32455;43.430;23.136;2022-08-07T12:36:25;97954.53;;;31.66;39.34
46722;BME280;32455;43.430;23.136;2022-08-07T12:39:12;97931.38;;;31.82;38.29
46722;BME280;32455;43.430;23.136;2022-08-07T12:41:59;97944.38;;;32.20;37.79
46722;BME280;32455;43.430;23.136;2022-08-07T12:44:47;97939.75;;;32.28;37.38
46722;BME280;32455;43.430;23.136;2022-08-07T12:47:41;97921.91;;;32.52;37.55
46722;BME280;32455;43.430;23.136;2022-08-07T12:54:00;97939.47;;;32.56;36.64
46722;BME280;32455;43.430;23.136;2022-08-07T12:56:50;97930.00;;;32.14;36.41
46722;BME280;32455;43.430;23.136;2022-08-07T12:59:37;97936.84;;;31.36;38.27
46722;BME280;32455;43.430;23.136;2022-08-07T13:08:57;97930.47;;;31.16;39.34
46722;BME280;32455;43.430;23.136;2022-08-07T13:14:42;97928.91;;;31.77;38.95
46722;BME280;32455;43.430;23.136;2022-08-07T13:18:02;97920.72;;;31.64;38.25
46722;BME280;32455;43.430;23.136;2022-08-07T13:21:12;97906.16;;;31.48;38.71
46722;BME280;32455;43.430;23.136;2022-08-07T13:24:17;97910.13;;;32.12;37.77
46722;BME280;32455;43.430;23.136;2022-08-07T13:27:15;97901.91;;;31.77;38.56
46722;BME280;32455;43.430;23.136;2022-08-07T13:30:06;97901.44;;;31.72;38.18
46722;BME280;32455;43.430;23.136;2022-08-07T13:33:08;97899.50;;;31.95;38.65
46722;BME280;32455;43.430;23.136;2022-08-07T13:36:03;97905.97;;;32.26;37.73
46722;BME280;32455;43.430;23.136;2022-08-07T13:39:08;97905.88;;;31.96;36.90
46722;BME280;32455;43.430;23.136;2022-08-07T13:42:01;97887.53;;;31.91;36.59
46722;BME280;32455;43.430;23.136;2022-08-07T13:44:47;97883.56;;;31.92;37.14
46722;BME280;32455;43.430;23.136;2022-08-07T13:47:38;97893.91;;;31.72;37.55
46722;BME280;32455;43.430;23.136;2022-08-07T13:50:25;97904.50;;;31.44;38.57
46722;BME280;32455;43.430;23.136;2022-08-07T13:53:18;97901.31;;;31.26;38.91
46722;BME280;32455;43.430;23.136;2022-08-07T13:56:05;97898.09;;;31.24;38.96
46722;BME280;32455;43.430;23.136;2022-08-07T13:58:52;97890.94;;;31.03;39.40
46722;BME280;32455;43.430;23.136;2022-08-07T14:01:56;97894.59;;;31.07;39.75
46722;BME280;32455;43.430;23.136;2022-08-07T14:04:56;97893.72;;;31.03;39.97
46722;BME280;32455;43.430;23.136;2022-08-07T14:07:47;97900.56;;;30.90;40.64
46722;BME280;32455;43.430;23.136;2022-08-07T14:10:34;97945.22;;;31.01;39.83
46722;BME280;32455;43.430;23.136;2022-08-07T14:13:26;97972.72;;;30.74;45.60
46722;BME280;32455;43.430;23.136;2022-08-07T14:16:16;97994.75;;;29.63;51.49
46722;BME280;32455;43.430;23.136;2022-08-07T14:19:04;98054.25;;;28.10;60.57
46722;BME280;32455;43.430;23.136;2022-08-07T14:22:27;98092.78;;;26.76;67.03
46722;BME280;32455;43.430;23.136;2022-08-07T14:29:47;98093.59;;;22.60;80.40
46722;BME280;32455;43.430;23.136;2022-08-07T14:32:41;98071.38;;;22.47;89.19
46722;BME280;32455;43.430;23.136;2022-08-07T14:35:35;98065.28;;;22.78;90.46
46722;BME280;32455;43.430;23.136;2022-08-07T14:38:25;98043.59;;;22.54;94.81
46722;BME280;32455;43.430;23.136;2022-08-07T14:41:11;98035.50;;;23.04;96.28
46722;BME280;32455;43.430;23.136;2022-08-07T14:44:00;98028.97;;;22.72;95.27
46722;BME280;32455;43.430;23.136;2022-08-07T14:46:48;98011.75;;;22.72;95.28
46722;BME280;32455;43.430;23.136;2022-08-07T14:49:34;98020.75;;;22.72;95.60
46722;BME280;32455;43.430;23.136;2022-08-07T14:52:21;98007.78;;;22.50;98.33
46722;BME280;32455;43.430;23.136;2022-08-07T14:55:09;98002.59;;;22.90;98.92
46722;BME280;32455;43.430;23.136;2022-08-07T14:57:56;98010.69;;;22.82;98.80
46722;BME280;32455;43.430;23.136;2022-08-07T15:00:46;98002.00;;;22.80;98.29
46722;BME280;32455;43.430;23.136;2022-08-07T15:03:35;97993.78;;;22.93;99.60
46722;BME280;32455;43.430;23.136;2022-08-07T15:06:24;97992.84;;;22.98;99.62
46722;BME280;32455;43.430;23.136;2022-08-07T15:09:14;97979.34;;;22.88;99.64
46722;BME280;32455;43.430;23.136;2022-08-07T15:12:08;97988.22;;;22.43;100.00
46722;BME280;32455;43.430;23.136;2022-08-07T15:15:00;97983.63;;;22.11;100.00
46722;BME280;32455;43.430;23.136;2022-08-07T15:17:53;97994.72;;;21.87;100.00
46722;BME280;32455;43.430;23.136;2022-08-07T15:20:41;97986.69;;;21.77;100.00
46722;BME280;32455;43.430;23.136;2022-08-07T15:23:31;97983.38;;;21.94;100.00
46722;BME280;32455;43.430;23.136;2022-08-07T15:26:20;97976.75;;;22.14;100.00
46722;BME280;32455;43.430;23.136;2022-08-07T15:29:14;97967.19;;;21.97;100.00
46722;BME280;32455;43.430;23.136;2022-08-07T15:32:02;97981.03;;;22.20;100.00
46722;BME280;32455;43.430;23.136;2022-08-07T15:34:51;97984.75;;;22.79;99.75
46722;BME280;32455;43.430;23.136;2022-08-07T15:37:36;97979.34;;;22.88;99.86
46722;BME280;32455;43.430;23.136;2022-08-07T15:40:27;97972.44;;;23.04;98.57
46722;BME280;32455;43.430;23.136;2022-08-07T15:43:15;97986.22;;;23.13;98.66
46722;BME280;32455;43.430;23.136;2022-08-07T15:46:15;97981.03;;;23.11;96.96
46722;BME280;32455;43.430;23.136;2022-08-07T15:49:04;97982.41;;;23.00;98.06
46722;BME280;32455;43.430;23.136;2022-08-07T15:51:53;97990.63;;;23.00;98.40
46722;BME280;32455;43.430;23.136;2022-08-07T15:54:41;97989.41;;;22.79;100.00
46722;BME280;32455;43.430;23.136;2022-08-07T15:57:29;97988.78;;;22.82;98.36
46722;BME280;32455;43.430;23.136;2022-08-07T16:00:20;97996.84;;;22.92;98.01
46722;BME280;32455;43.430;23.136;2022-08-07T16:03:18;97989.00;;;22.71;98.69
46722;BME280;32455;43.430;23.136;2022-08-07T16:06:04;97987.59;;;22.74;99.33
46722;BME280;32455;43.430;23.136;2022-08-07T16:08:52;97995.91;;;22.69;100.00
46722;BME280;32455;43.430;23.136;2022-08-07T16:12:03;97993.16;;;22.83;99.49
46722;BME280;32455;43.430;23.136;2022-08-07T16:15:23;97991.66;;;22.90;97.69
46722;BME280;32455;43.430;23.136;2022-08-07T16:22:36;97991.44;;;22.73;99.46
46722;BME280;32455;43.430;23.136;2022-08-07T16:28:20;97994.78;;;22.84;98.33
46722;BME280;32455;43.430;23.136;2022-08-07T16:34:37;97977.13;;;22.76;98.97
46722;BME280;32455;43.430;23.136;2022-08-07T16:37:44;97990.22;;;22.93;98.06
46722;BME280;32455;43.430;23.136;2022-08-07T16:58:15;98012.28;;;23.24;95.95
46722;BME280;32455;43.430;23.136;2022-08-07T17:04:24;98014.81;;;23.20;94.66
46722;BME280;32455;43.430;23.136;2022-08-07T17:07:22;98017.75;;;23.24;94.78
46722;BME280;32455;43.430;23.136;2022-08-07T17:10:10;98017.47;;;23.12;99.10
46722;BME280;32455;43.430;23.136;2022-08-07T17:16:28;97990.13;;;22.84;100.00
46722;BME280;32455;43.430;23.136;2022-08-07T17:22:58;98019.66;;;22.60;100.00
46722;BME280;32455;43.430;23.136;2022-08-07T17:32:01;98053.94;;;22.85;100.00
46722;BME280;32455;43.430;23.136;2022-08-07T17:34:52;98045.00;;;22.38;100.00
46722;BME280;32455;43.430;23.136;2022-08-07T17:40:55;98069.94;;;22.04;100.00
46722;BME280;32455;43.430;23.136;2022-08-07T17:43:48;98053.63;;;21.80;100.00
46722;BME280;32455;43.430;23.136;2022-08-07T17:46:55;98060.34;;;22.06;100.00